createdAt,value
2018-07-27T00:00:44.268Z,0.00
2018-07-27T00:01:44.268Z,0.00
2018-07-27T00:02:44.271Z,0.00
2018-07-27T00:03:44.276Z,0.00
2018-07-27T00:04:44.276Z,0.00
2018-07-27T00:05:44.277Z,0.00
2018-07-27T00:06:44.279Z,0.00
2018-07-27T00:07:44.281Z,0.00
2018-07-27T00:08:44.284Z,0.00
2018-07-27T00:09:44.285Z,0.00
2018-07-27T00:10:44.287Z,0.00
2018-07-27T00:11:44.289Z,0.00
2018-07-27T00:12:44.292Z,0.00
2018-07-27T00:13:44.293Z,0.00
2018-07-27T00:14:44.346Z,0.00
2018-07-27T00:15:44.303Z,0.00
2018-07-27T00:16:44.299Z,0.00
2018-07-27T00:17:44.301Z,0.00
2018-07-27T00:18:44.303Z,0.00
2018-07-27T00:19:44.306Z,0.00
2018-07-27T00:20:44.308Z,0.00
2018-07-27T00:21:44.310Z,0.00
2018-07-27T00:22:44.311Z,0.00
2018-07-27T00:23:44.313Z,0.00
2018-07-27T00:24:44.316Z,0.00
2018-07-27T00:25:44.320Z,0.00
2018-07-27T00:26:44.322Z,0.00
2018-07-27T00:27:44.321Z,0.00
2018-07-27T00:28:44.323Z,0.00
2018-07-27T00:29:44.325Z,0.00
2018-07-27T00:30:44.326Z,0.00
2018-07-27T06:21:44.724Z,2556.00
2018-07-27T06:22:44.726Z,2584.00
2018-07-27T06:23:44.764Z,2608.00
2018-07-27T06:24:44.731Z,2636.00
2018-07-27T06:25:44.788Z,2664.00
2018-07-27T06:26:44.735Z,2688.00
2018-07-27T06:27:44.738Z,2700.00
2018-07-27T06:28:44.740Z,2740.00
2018-07-27T06:29:44.741Z,2768.00
2018-07-27T06:30:44.744Z,2784.00
2018-07-27T06:31:44.750Z,2816.00
2018-07-27T06:32:44.749Z,2796.00
2018-07-27T06:33:44.794Z,2804.00
2018-07-27T06:34:44.816Z,2884.00
2018-07-27T06:35:44.756Z,2912.00
2018-07-27T06:36:44.760Z,2940.00
2018-07-27T06:37:44.762Z,2960.00
2018-07-27T06:38:44.764Z,2988.00
2018-07-27T06:39:44.768Z,3016.00
2018-07-27T06:40:44.769Z,2960.00
2018-07-27T06:41:44.772Z,2980.00
2018-07-27T06:42:44.775Z,3008.00
2018-07-27T06:43:44.777Z,3028.00
2018-07-27T06:44:44.783Z,3052.00
2018-07-27T06:45:44.782Z,3076.00
2018-07-27T06:46:44.787Z,3188.00
2018-07-27T06:47:44.792Z,3204.00
2018-07-27T06:48:44.791Z,3236.00
2018-07-27T06:49:44.793Z,3256.00
2018-07-27T06:50:44.798Z,3296.00
2018-07-27T06:51:44.799Z,3320.00
2018-07-27T06:52:44.810Z,3340.00
2018-07-27T06:53:44.804Z,3372.00
2018-07-27T06:54:44.807Z,3400.00
2018-07-27T06:55:44.874Z,3424.00
2018-07-27T06:56:44.920Z,3444.00
2018-07-27T06:57:44.818Z,3464.00
2018-07-27T06:58:44.818Z,3496.00
2018-07-27T06:59:44.822Z,3516.00
2018-07-27T07:00:44.825Z,3536.00
2018-07-27T07:01:44.828Z,3568.00
2018-07-27T07:02:44.831Z,3612.00
2018-07-27T07:03:44.834Z,3636.00
2018-07-27T07:04:44.837Z,3660.00
2018-07-27T07:05:44.840Z,3692.00
2018-07-27T07:06:44.842Z,3716.00
2018-07-27T07:07:44.846Z,3740.00
2018-07-27T07:08:44.850Z,3768.00
2018-07-27T07:09:44.852Z,3796.00
2018-07-27T07:10:44.856Z,3836.00
2018-07-27T07:11:44.859Z,3852.00
2018-07-27T07:12:44.868Z,3884.00
2018-07-27T07:13:44.865Z,3916.00
2018-07-27T07:14:44.869Z,3936.00
2018-07-27T07:15:44.872Z,3976.00
2018-07-27T07:16:44.876Z,4036.00
2018-07-27T07:17:44.878Z,11572.00
2018-07-27T07:18:44.882Z,40992.00
2018-07-27T07:19:44.890Z,65504.00
2018-07-27T07:20:44.895Z,47680.00
2018-07-27T07:21:44.894Z,42432.00
2018-07-27T07:22:44.898Z,38848.00
2018-07-27T07:23:44.906Z,27872.00
2018-07-27T07:24:44.910Z,23456.00
2018-07-27T07:25:45.175Z,22496.00
2018-07-27T07:26:44.920Z,27808.00
2018-07-27T07:27:44.926Z,40512.00
2018-07-27T07:28:44.978Z,32064.00
2018-07-27T07:29:44.936Z,24096.00
2018-07-27T07:30:44.942Z,18080.00
2018-07-27T07:31:44.949Z,40000.00
2018-07-27T07:32:44.954Z,28160.00
2018-07-27T07:33:44.961Z,17536.00
2018-07-27T07:34:44.967Z,25216.00
2018-07-27T07:35:44.974Z,36576.00
2018-07-27T07:36:44.980Z,49664.00
2018-07-27T07:37:44.987Z,41952.00
2018-07-27T07:38:44.995Z,44640.00
2018-07-27T07:39:45.002Z,57600.00
2018-07-27T07:40:45.010Z,44960.00
2018-07-27T07:41:45.017Z,22688.00
2018-07-27T07:42:45.027Z,31200.00
2018-07-27T07:43:45.093Z,34816.00
2018-07-27T07:44:45.048Z,28992.00
2018-07-27T07:45:45.053Z,23872.00
2018-07-27T07:46:45.068Z,33760.00
2018-07-27T07:47:45.071Z,36896.00
2018-07-27T07:48:45.081Z,28832.00
2018-07-27T07:49:45.113Z,14616.00
2018-07-27T07:50:45.098Z,5440.00
2018-07-27T07:51:45.108Z,5340.00
2018-07-27T07:52:45.116Z,5272.00
2018-07-27T07:53:45.123Z,9900.00
2018-07-27T07:54:45.132Z,9104.00
2018-07-27T07:55:45.219Z,6464.00
2018-07-27T07:56:45.150Z,14308.00
2018-07-27T07:57:45.157Z,19936.00
2018-07-27T07:58:45.164Z,14872.00
2018-07-27T07:59:45.173Z,8260.00
2018-07-27T08:00:45.181Z,8032.00
2018-07-27T08:01:45.190Z,14024.00
2018-07-27T08:02:45.321Z,22176.00
2018-07-27T08:03:45.203Z,44096.00
2018-07-27T08:04:45.211Z,58016.00
2018-07-27T08:05:45.219Z,56032.00
2018-07-27T08:06:45.228Z,44672.00
2018-07-27T08:07:45.239Z,49280.00
2018-07-27T08:08:45.249Z,68928.00
2018-07-27T08:09:45.256Z,55104.00
2018-07-27T08:10:45.267Z,37888.00
2018-07-27T08:11:45.278Z,52832.00
2018-07-27T08:12:45.292Z,75488.00
2018-07-27T08:13:45.303Z,79072.00
2018-07-27T08:14:45.315Z,78720.00
2018-07-27T08:15:45.327Z,77632.00
2018-07-27T08:16:45.691Z,71328.00
2018-07-27T08:17:45.353Z,62368.00
2018-07-27T08:18:45.366Z,59968.00
2018-07-27T08:19:45.380Z,67296.00
2018-07-27T08:20:45.397Z,68960.00
2018-07-27T08:21:45.407Z,68512.00
2018-07-27T08:22:45.422Z,67104.00
2018-07-27T08:23:45.438Z,67072.00
2018-07-27T08:24:45.452Z,67872.00
2018-07-27T08:25:45.520Z,67072.00
2018-07-27T08:26:45.484Z,66784.00
2018-07-27T08:27:45.498Z,67328.00
2018-07-27T08:28:45.513Z,65856.00
2018-07-27T08:29:45.528Z,66144.00
2018-07-27T08:30:45.544Z,67904.00
2018-07-27T08:31:45.560Z,63008.00
2018-07-27T08:32:45.576Z,59968.00
2018-07-27T08:33:45.590Z,63744.00
2018-07-27T08:34:45.607Z,65760.00
2018-07-27T08:35:45.623Z,65216.00
2018-07-27T08:36:45.662Z,64224.00
2018-07-27T08:37:45.654Z,64832.00
2018-07-27T08:38:45.672Z,66496.00
2018-07-27T08:39:45.720Z,66784.00
2018-07-27T08:40:45.704Z,62816.00
2018-07-27T08:41:45.719Z,59072.00
2018-07-27T08:42:45.735Z,53408.00
2018-07-27T08:43:45.752Z,55776.00
2018-07-27T08:44:45.768Z,61280.00
2018-07-27T08:45:45.783Z,54240.00
2018-07-27T08:46:45.838Z,54432.00
2018-07-27T08:47:45.819Z,60000.00
2018-07-27T08:48:45.833Z,60448.00
2018-07-27T08:49:45.851Z,59360.00
2018-07-27T08:50:45.864Z,54080.00
2018-07-27T08:51:45.881Z,52768.00
2018-07-27T08:52:45.897Z,59168.00
2018-07-27T08:53:45.914Z,61088.00
2018-07-27T08:54:45.930Z,58624.00
2018-07-27T08:55:46.043Z,59040.00
2018-07-27T08:56:45.972Z,57120.00
2018-07-27T08:57:45.995Z,55488.00
2018-07-27T08:58:46.176Z,58176.00
2018-07-27T08:59:46.014Z,56960.00
2018-07-27T09:00:46.031Z,58368.00
2018-07-27T09:01:46.048Z,62432.00
2018-07-27T09:02:46.066Z,57696.00
2018-07-27T09:03:46.089Z,58080.00
2018-07-27T09:04:46.098Z,57056.00
2018-07-27T09:05:46.114Z,57152.00
2018-07-27T09:06:46.132Z,62240.00
2018-07-27T09:07:46.152Z,57632.00
2018-07-27T09:08:46.165Z,58048.00
2018-07-27T09:09:46.182Z,58624.00
2018-07-27T09:10:46.199Z,60704.00
2018-07-27T09:11:46.216Z,58336.00
2018-07-27T09:12:46.235Z,57408.00
2018-07-27T09:13:46.250Z,55968.00
2018-07-27T09:14:46.266Z,58368.00
2018-07-27T09:15:46.284Z,56480.00
2018-07-27T09:16:46.300Z,56320.00
2018-07-27T09:17:46.317Z,52768.00
2018-07-27T09:18:46.334Z,52896.00
2018-07-27T09:19:46.485Z,55680.00
2018-07-27T09:20:46.369Z,54880.00
2018-07-27T09:21:46.386Z,57184.00
2018-07-27T09:22:46.524Z,55264.00
2018-07-27T09:23:46.419Z,52992.00
2018-07-27T09:24:46.565Z,54656.00
2018-07-27T09:25:46.492Z,53696.00
2018-07-27T09:26:46.469Z,54336.00
2018-07-27T09:27:46.486Z,52192.00
2018-07-27T09:28:46.508Z,52096.00
2018-07-27T09:29:46.519Z,49120.00
2018-07-27T09:30:46.537Z,44576.00
2018-07-27T09:31:46.554Z,45376.00
2018-07-27T09:32:46.572Z,47392.00
2018-07-27T09:33:46.586Z,46560.00
2018-07-27T09:34:46.605Z,46112.00
2018-07-27T09:35:46.620Z,44928.00
2018-07-27T09:36:46.636Z,41952.00
2018-07-27T09:37:46.653Z,39616.00
2018-07-27T09:38:46.673Z,40768.00
2018-07-27T09:39:46.747Z,38752.00
2018-07-27T09:40:46.712Z,36352.00
2018-07-27T09:41:46.718Z,36832.00
2018-07-27T09:42:46.735Z,36000.00
2018-07-27T09:43:46.839Z,37856.00
2018-07-27T09:44:46.800Z,40192.00
2018-07-27T09:45:46.837Z,36480.00
2018-07-27T09:46:46.799Z,36736.00
2018-07-27T09:47:46.815Z,38560.00
2018-07-27T09:48:46.831Z,35424.00
2018-07-27T09:49:46.868Z,33632.00
2018-07-27T09:50:47.145Z,33696.00
2018-07-27T09:51:46.878Z,33664.00
2018-07-27T09:52:46.893Z,32768.00
2018-07-27T09:53:46.914Z,34272.00
2018-07-27T09:54:47.081Z,33248.00
2018-07-27T09:55:47.061Z,30048.00
2018-07-27T09:56:46.982Z,31872.00
2018-07-27T09:57:46.978Z,31840.00
2018-07-27T09:58:46.984Z,30528.00
2018-07-27T09:59:47.000Z,28480.00
2018-07-27T10:00:47.016Z,27744.00
2018-07-27T10:01:47.031Z,28416.00
2018-07-27T10:02:47.044Z,28608.00
2018-07-27T10:03:47.062Z,27584.00
2018-07-27T10:04:47.077Z,27200.00
2018-07-27T10:05:47.133Z,27008.00
2018-07-27T10:06:47.108Z,25152.00
2018-07-27T10:07:47.124Z,23936.00
2018-07-27T10:08:47.138Z,23776.00
2018-07-27T10:09:47.152Z,24576.00
2018-07-27T10:10:47.167Z,24640.00
2018-07-27T10:11:47.183Z,24544.00
2018-07-27T10:12:47.201Z,22400.00
2018-07-27T10:13:47.231Z,22304.00
2018-07-27T10:14:47.227Z,20480.00
2018-07-27T10:15:47.242Z,20352.00
2018-07-27T10:16:47.257Z,19136.00
2018-07-27T10:17:47.272Z,19264.00
2018-07-27T10:18:47.288Z,17664.00
2018-07-27T10:19:47.306Z,17088.00
2018-07-27T10:20:47.317Z,17536.00
2018-07-27T10:21:47.331Z,16768.00
2018-07-27T10:22:47.346Z,18816.00
2018-07-27T10:23:47.362Z,18720.00
2018-07-27T10:24:47.376Z,18432.00
2018-07-27T10:25:47.439Z,16832.00
2018-07-27T10:26:47.405Z,19392.00
2018-07-27T10:27:47.419Z,22400.00
2018-07-27T10:28:47.436Z,20160.00
2018-07-27T10:29:47.452Z,13408.00
2018-07-27T10:30:47.463Z,8664.00
2018-07-27T10:31:47.477Z,7972.00
2018-07-27T10:32:47.492Z,7712.00
2018-07-27T10:33:47.506Z,7580.00
2018-07-27T10:34:47.519Z,7508.00
2018-07-27T10:35:47.536Z,7508.00
2018-07-27T10:36:47.550Z,7464.00
2018-07-27T10:37:47.565Z,7396.00
2018-07-27T10:38:47.578Z,7292.00
2018-07-27T10:39:47.594Z,7300.00
2018-07-27T10:40:47.630Z,7276.00
2018-07-27T10:41:47.622Z,7252.00
2018-07-27T10:42:47.637Z,7196.00
2018-07-27T10:43:47.651Z,7264.00
2018-07-27T10:44:47.723Z,6936.00
2018-07-27T10:45:47.680Z,7060.00
2018-07-27T10:46:47.694Z,7056.00
2018-07-27T10:47:47.709Z,7044.00
2018-07-27T10:48:47.726Z,6952.00
2018-07-27T10:49:47.737Z,6796.00
2018-07-27T10:50:47.815Z,6852.00
2018-07-27T10:51:47.766Z,6864.00
2018-07-27T10:52:47.782Z,6932.00
2018-07-27T10:53:47.900Z,6888.00
2018-07-27T10:54:47.809Z,6920.00
2018-07-27T10:55:47.931Z,6900.00
2018-07-27T10:56:47.837Z,6896.00
2018-07-27T10:57:47.851Z,6880.00
2018-07-27T10:58:47.865Z,6908.00
2018-07-27T10:59:47.880Z,6840.00
2018-07-27T11:00:47.894Z,6928.00
2018-07-27T11:01:47.910Z,7028.00
2018-07-27T11:02:47.922Z,7036.00
2018-07-27T11:03:47.937Z,7076.00
2018-07-27T11:04:48.046Z,7180.00
2018-07-27T11:05:47.963Z,7212.00
2018-07-27T11:06:47.980Z,7104.00
2018-07-27T11:07:47.990Z,7088.00
2018-07-27T11:08:48.010Z,7064.00
2018-07-27T11:09:48.112Z,7060.00
2018-07-27T11:10:48.123Z,7044.00
2018-07-27T11:11:48.045Z,7068.00
2018-07-27T11:12:48.059Z,7036.00
2018-07-27T11:13:48.072Z,7084.00
2018-07-27T11:14:48.087Z,7108.00
2018-07-27T11:15:48.098Z,7124.00
2018-07-27T11:16:48.113Z,7184.00
2018-07-27T11:17:48.130Z,7332.00
2018-07-27T11:18:48.139Z,7420.00
2018-07-27T11:19:48.174Z,7460.00
2018-07-27T11:20:48.166Z,7312.00
2018-07-27T11:21:48.178Z,7328.00
2018-07-27T11:22:48.192Z,7332.00
2018-07-27T11:23:48.206Z,7392.00
2018-07-27T11:24:48.437Z,7320.00
2018-07-27T11:25:48.352Z,7504.00
2018-07-27T11:26:48.246Z,7456.00
2018-07-27T11:27:48.260Z,7448.00
2018-07-27T11:28:48.272Z,7420.00
2018-07-27T11:29:48.285Z,7468.00
2018-07-27T11:30:48.297Z,7448.00
2018-07-27T11:31:48.313Z,7496.00
2018-07-27T11:32:48.325Z,7516.00
2018-07-27T11:33:48.376Z,7556.00
2018-07-27T11:34:48.352Z,7580.00
2018-07-27T11:35:48.366Z,7536.00
2018-07-27T11:36:48.377Z,7668.00
2018-07-27T11:37:48.394Z,7684.00
2018-07-27T11:38:48.405Z,7708.00
2018-07-27T11:39:48.419Z,7700.00
2018-07-27T11:40:48.463Z,7736.00
2018-07-27T11:41:48.599Z,7736.00
2018-07-27T11:42:48.459Z,7756.00
2018-07-27T11:43:48.473Z,7700.00
2018-07-27T11:44:48.491Z,7716.00
2018-07-27T11:45:48.499Z,7648.00
2018-07-27T11:46:48.888Z,7696.00
2018-07-27T11:47:48.546Z,7656.00
2018-07-27T11:48:48.539Z,7668.00
2018-07-27T11:49:48.553Z,7664.00
2018-07-27T11:50:48.567Z,7704.00
2018-07-27T11:51:48.579Z,7656.00
2018-07-27T11:52:48.592Z,7644.00
2018-07-27T11:53:48.604Z,7704.00
2018-07-27T11:54:48.618Z,7712.00
2018-07-27T11:55:48.632Z,7796.00
2018-07-27T11:56:48.644Z,7872.00
2018-07-27T11:57:48.657Z,7964.00
2018-07-27T11:58:48.670Z,7920.00
2018-07-27T11:59:48.683Z,7984.00
2018-07-27T12:00:48.710Z,7964.00
2018-07-27T12:01:48.750Z,7892.00
2018-07-27T12:02:48.721Z,8024.00
2018-07-27T12:03:48.734Z,8040.00
2018-07-27T12:04:48.747Z,8020.00
2018-07-27T12:05:48.759Z,8000.00
2018-07-27T12:06:48.772Z,8048.00
2018-07-27T12:07:48.786Z,8116.00
2018-07-27T12:08:48.797Z,8084.00
2018-07-27T12:09:48.809Z,8072.00
2018-07-27T12:10:48.822Z,8096.00
2018-07-27T12:11:48.835Z,8108.00
2018-07-27T12:12:48.851Z,8084.00
2018-07-27T12:13:48.920Z,8104.00
2018-07-27T12:14:49.025Z,8120.00
2018-07-27T12:15:48.885Z,8148.00
2018-07-27T12:16:48.899Z,8168.00
2018-07-27T12:17:48.994Z,8156.00
2018-07-27T12:18:48.922Z,8180.00
2018-07-27T12:19:48.936Z,8188.00
2018-07-27T12:20:48.979Z,8172.00
2018-07-27T12:21:49.174Z,8180.00
2018-07-27T12:22:48.973Z,8188.00
2018-07-27T12:23:48.989Z,8160.00
2018-07-27T12:24:48.997Z,8164.00
2018-07-27T12:25:49.009Z,8152.00
2018-07-27T12:26:49.269Z,8128.00
2018-07-27T12:27:49.037Z,8132.00
2018-07-27T12:28:49.047Z,8108.00
2018-07-27T12:29:49.060Z,8084.00
2018-07-27T12:30:49.071Z,8088.00
2018-07-27T12:31:49.087Z,8092.00
2018-07-27T12:32:49.098Z,8060.00
2018-07-27T12:33:49.110Z,8048.00
2018-07-27T12:34:49.120Z,8052.00
2018-07-27T12:35:49.134Z,8048.00
2018-07-27T12:36:49.144Z,8048.00
2018-07-27T12:37:49.181Z,8036.00
2018-07-27T12:38:49.172Z,8020.00
2018-07-27T12:39:49.182Z,8008.00
2018-07-27T12:40:49.194Z,8000.00
2018-07-27T12:41:49.205Z,7992.00
2018-07-27T12:42:49.217Z,7976.00
2018-07-27T12:43:49.231Z,7976.00
2018-07-27T12:44:49.288Z,7972.00
2018-07-27T12:45:49.266Z,7968.00
2018-07-27T12:46:49.266Z,7976.00
2018-07-27T12:47:49.279Z,7984.00
2018-07-27T12:48:49.290Z,8008.00
2018-07-27T12:49:49.301Z,8020.00
2018-07-27T12:50:49.316Z,8012.00
2018-07-27T12:51:49.332Z,8032.00
2018-07-27T12:52:49.338Z,8040.00
2018-07-27T12:53:49.409Z,8044.00
2018-07-27T12:54:49.449Z,8036.00
2018-07-27T12:55:49.375Z,8028.00
2018-07-27T12:56:49.388Z,8036.00
2018-07-27T12:57:49.399Z,8016.00
2018-07-27T12:58:49.411Z,8000.00
2018-07-27T12:59:49.424Z,7996.00
2018-07-27T13:00:49.437Z,8004.00
2018-07-27T13:01:49.474Z,8020.00
2018-07-27T13:02:49.484Z,7996.00
2018-07-27T13:03:49.472Z,7992.00
2018-07-27T13:04:49.485Z,8020.00
2018-07-27T13:05:49.495Z,8024.00
2018-07-27T13:06:49.856Z,8064.00
2018-07-27T13:07:49.796Z,8060.00
2018-07-27T13:08:49.651Z,8044.00
2018-07-27T13:09:49.767Z,8040.00
2018-07-27T13:10:49.594Z,8056.00
2018-07-27T13:11:49.620Z,8064.00
2018-07-27T13:12:49.744Z,8052.00
2018-07-27T13:13:49.591Z,8036.00
2018-07-27T13:14:49.624Z,8016.00
2018-07-27T13:15:49.668Z,8036.00
2018-07-27T13:16:49.627Z,8036.00
2018-07-27T13:17:49.794Z,8040.00
2018-07-27T13:18:49.852Z,8036.00
2018-07-27T13:19:49.662Z,8056.00
2018-07-27T13:20:49.679Z,8032.00
2018-07-27T13:21:49.725Z,8036.00
2018-07-27T13:22:49.698Z,8044.00
2018-07-27T13:23:49.712Z,8068.00
2018-07-27T13:24:56.734Z,8104.00
2018-07-27T13:25:49.789Z,8128.00
2018-07-27T13:26:49.748Z,8116.00
2018-07-27T13:27:49.758Z,8088.00
2018-07-27T13:28:49.865Z,8060.00
2018-07-27T13:29:49.783Z,8036.00
2018-07-27T13:30:49.958Z,8024.00
2018-07-27T13:31:49.825Z,8032.00
2018-07-27T13:32:49.813Z,8036.00
2018-07-27T13:33:49.823Z,8056.00
2018-07-27T13:34:49.846Z,8060.00
2018-07-27T13:35:49.857Z,8036.00
2018-07-27T13:36:49.858Z,8012.00
2018-07-27T13:37:49.868Z,8004.00
2018-07-27T13:38:49.880Z,7988.00
2018-07-27T13:39:49.898Z,7980.00
2018-07-27T13:40:49.903Z,7960.00
2018-07-27T13:41:50.204Z,7968.00
2018-07-27T13:42:49.924Z,7960.00
2018-07-27T13:43:49.949Z,7960.00
2018-07-27T13:44:49.946Z,7952.00
2018-07-27T13:45:49.955Z,7952.00
2018-07-27T13:46:49.966Z,7920.00
2018-07-27T13:47:49.979Z,7904.00
2018-07-27T13:48:49.989Z,7900.00
2018-07-27T13:49:50.001Z,7888.00
2018-07-27T13:50:50.012Z,7896.00
2018-07-27T13:51:50.024Z,7892.00
2018-07-27T13:52:50.278Z,7872.00
2018-07-27T13:53:50.045Z,7876.00
2018-07-27T13:54:50.057Z,7860.00
2018-07-27T13:55:50.067Z,7844.00
2018-07-27T13:56:50.081Z,7828.00
2018-07-27T13:57:50.089Z,7840.00
2018-07-27T13:58:50.114Z,7808.00
2018-07-27T13:59:50.110Z,7800.00
2018-07-27T14:00:50.121Z,7768.00
2018-07-27T14:01:50.387Z,7744.00
2018-07-27T14:02:50.143Z,7756.00
2018-07-27T14:03:50.470Z,7732.00
2018-07-27T14:04:50.165Z,7728.00
2018-07-27T14:05:50.177Z,7716.00
2018-07-27T14:06:50.481Z,7696.00
2018-07-27T14:07:50.202Z,7676.00
2018-07-27T14:08:50.213Z,7652.00
2018-07-27T14:09:50.225Z,7636.00
2018-07-27T14:10:50.239Z,7624.00
2018-07-27T14:11:50.243Z,7604.00
2018-07-27T14:12:50.253Z,7580.00
2018-07-27T14:13:50.264Z,7568.00
2018-07-27T14:14:50.278Z,7540.00
2018-07-27T14:15:50.287Z,7528.00
2018-07-27T14:16:50.564Z,7508.00
2018-07-27T14:17:50.307Z,7480.00
2018-07-27T14:18:50.319Z,7444.00
2018-07-27T14:19:50.331Z,7404.00
2018-07-27T14:20:50.340Z,7352.00
2018-07-27T14:21:50.397Z,7332.00
2018-07-27T14:22:50.361Z,7272.00
2018-07-27T14:23:50.389Z,7264.00
2018-07-27T14:24:50.380Z,7220.00
2018-07-27T14:25:50.390Z,7188.00
2018-07-27T14:26:50.402Z,7144.00
2018-07-27T14:27:50.412Z,7112.00
2018-07-27T14:28:50.426Z,7072.00
2018-07-27T14:29:50.432Z,7032.00
2018-07-27T14:30:50.442Z,6992.00
2018-07-27T14:31:50.454Z,6964.00
2018-07-27T14:32:50.463Z,6944.00
2018-07-27T14:33:50.474Z,6916.00
2018-07-27T14:34:50.483Z,6884.00
2018-07-27T14:35:50.494Z,6840.00
2018-07-27T14:36:50.559Z,6800.00
2018-07-27T14:37:50.513Z,6760.00
2018-07-27T14:38:50.820Z,6732.00
2018-07-27T14:39:50.535Z,6696.00
2018-07-27T14:40:50.544Z,6652.00
2018-07-27T14:41:50.704Z,6612.00
2018-07-27T14:42:50.672Z,6492.00
2018-07-27T14:43:50.572Z,6312.00
2018-07-27T14:44:50.584Z,6036.00
2018-07-27T14:45:50.591Z,5792.00
2018-07-27T14:46:50.602Z,5672.00
2018-07-27T14:47:50.611Z,5584.00
2018-07-27T14:48:50.621Z,5532.00
2018-07-27T14:49:50.631Z,5480.00
2018-07-27T14:50:50.639Z,5436.00
2018-07-27T14:51:50.649Z,5380.00
2018-07-27T14:52:50.702Z,5304.00
2018-07-27T14:53:50.955Z,5216.00
2018-07-27T14:54:50.985Z,5132.00
2018-07-27T14:55:50.936Z,5048.00
2018-07-27T14:56:50.696Z,4964.00
2018-07-27T14:57:50.705Z,4884.00
2018-07-27T14:58:50.715Z,4804.00
2018-07-27T14:59:51.012Z,4692.00
2018-07-27T15:00:51.066Z,4620.00
2018-07-27T15:01:50.741Z,4548.00
2018-07-27T15:02:50.754Z,4472.00
2018-07-27T15:03:50.761Z,4404.00
2018-07-27T15:04:50.816Z,4344.00
2018-07-27T15:05:50.780Z,4296.00
2018-07-27T15:06:50.792Z,4232.00
2018-07-27T15:07:50.798Z,4172.00
2018-07-27T15:08:51.312Z,4116.00
2018-07-27T15:09:50.816Z,4056.00
2018-07-27T15:10:50.826Z,4004.00
2018-07-27T15:11:50.835Z,3940.00
2018-07-27T15:12:50.896Z,3896.00
2018-07-27T15:13:50.851Z,3856.00
2018-07-27T15:14:50.861Z,3792.00
2018-07-27T15:15:50.870Z,3772.00
2018-07-27T15:16:50.880Z,3732.00
2018-07-27T15:17:50.887Z,3684.00
2018-07-27T15:18:50.897Z,3648.00
2018-07-27T15:19:50.906Z,3596.00
2018-07-27T15:20:50.914Z,3548.00
2018-07-27T15:21:50.926Z,3500.00
2018-07-27T15:22:50.931Z,3448.00
2018-07-27T15:23:50.941Z,3412.00
2018-07-27T15:24:50.949Z,3364.00
2018-07-27T15:25:50.960Z,3308.00
2018-07-27T15:26:50.965Z,3248.00
2018-07-27T15:27:50.975Z,3180.00
2018-07-27T15:28:50.983Z,3120.00
2018-07-27T15:29:50.991Z,3048.00
2018-07-27T15:30:51.004Z,3000.00
2018-07-27T15:31:51.008Z,2912.00
2018-07-27T15:32:51.017Z,2872.00
2018-07-27T15:33:51.025Z,2816.00
2018-07-27T15:34:51.034Z,2748.00
2018-07-27T15:35:51.042Z,2708.00
2018-07-27T15:36:51.052Z,2664.00
2018-07-27T15:37:51.059Z,2612.00
2018-07-27T15:38:51.067Z,2556.00
2018-07-27T15:39:51.076Z,2500.00
2018-07-27T15:40:51.085Z,2444.00
2018-07-27T15:41:51.092Z,2392.00
2018-07-27T15:42:51.142Z,2340.00
2018-07-27T15:43:51.110Z,2272.00
2018-07-27T15:44:51.126Z,2236.00
2018-07-27T15:45:51.125Z,2192.00
2018-07-27T15:46:51.360Z,2160.00
2018-07-27T15:47:51.161Z,2112.00
2018-07-27T15:48:51.659Z,2076.00
2018-07-27T15:49:51.157Z,2044.00
2018-07-27T15:50:51.586Z,2004.00
2018-07-27T15:51:51.366Z,1972.00
2018-07-27T15:52:51.185Z,1928.00
2018-07-27T15:53:51.191Z,1896.00
2018-07-27T15:54:51.197Z,1860.00
2018-07-27T15:55:51.259Z,1836.00
2018-07-27T15:56:51.214Z,1796.00
2018-07-27T15:57:51.221Z,1772.00
2018-07-27T15:58:51.232Z,1748.00
2018-07-27T15:59:53.441Z,1724.00
2018-07-27T16:00:51.543Z,1708.00
2018-07-27T16:01:51.251Z,1684.00
2018-07-27T16:02:51.260Z,1672.00
2018-07-27T16:03:51.304Z,1656.00
2018-07-27T16:04:51.276Z,1648.00
2018-07-27T16:05:51.283Z,1680.00
2018-07-27T16:06:51.290Z,1304.00
2018-07-27T16:07:51.298Z,1552.00
2018-07-27T16:08:51.306Z,1556.00
2018-07-27T16:09:51.312Z,1460.00
2018-07-27T16:10:51.320Z,1664.00
2018-07-27T16:11:51.328Z,1616.00
2018-07-27T16:12:51.337Z,1620.00
2018-07-27T16:13:51.357Z,1592.00
2018-07-27T16:14:51.351Z,1156.00
2018-07-27T16:15:53.049Z,1172.00
2018-07-27T16:16:51.367Z,1160.00
2018-07-27T16:17:51.373Z,1168.00
2018-07-27T16:18:51.384Z,1260.00
2018-07-27T16:19:51.392Z,1180.00
2018-07-27T16:20:51.396Z,1220.00
2018-07-27T16:21:51.743Z,1440.00
2018-07-27T16:22:51.413Z,1572.00
2018-07-27T16:23:51.418Z,1568.00
2018-07-27T16:24:51.427Z,1552.00
2018-07-27T16:25:51.459Z,1544.00
2018-07-27T16:26:51.442Z,1528.00
2018-07-27T16:27:51.449Z,1540.00
2018-07-27T16:28:51.680Z,1572.00
2018-07-27T16:29:51.464Z,1604.00
2018-07-27T16:30:51.471Z,1632.00
2018-07-27T16:31:51.929Z,1664.00
2018-07-27T16:32:51.829Z,1584.00
2018-07-27T16:33:51.493Z,1616.00
2018-07-27T16:34:51.859Z,1772.00
2018-07-27T16:35:51.798Z,1636.00
2018-07-27T16:36:51.516Z,1784.00
2018-07-27T16:37:51.523Z,1768.00
2018-07-27T16:38:51.530Z,1716.00
2018-07-27T16:39:51.700Z,1668.00
2018-07-27T16:40:51.786Z,1624.00
2018-07-27T16:41:52.006Z,1600.00
2018-07-27T16:42:51.560Z,1572.00
2018-07-27T16:43:51.568Z,1600.00
2018-07-27T16:44:51.575Z,1636.00
2018-07-27T16:45:51.582Z,1712.00
2018-07-27T16:46:51.597Z,1800.00
2018-07-27T16:47:51.597Z,1864.00
2018-07-27T16:48:51.605Z,1884.00
2018-07-27T16:49:51.612Z,1880.00
2018-07-27T16:50:51.619Z,1864.00
2018-07-27T16:51:51.630Z,1788.00
2018-07-27T16:52:51.661Z,1744.00
2018-07-27T16:53:51.640Z,1688.00
2018-07-27T16:54:51.648Z,1624.00
2018-07-27T16:55:51.655Z,1556.00
2018-07-27T16:56:51.792Z,1472.00
2018-07-27T16:57:51.669Z,1360.00
2018-07-27T16:58:51.676Z,1264.00
2018-07-27T16:59:51.693Z,1204.00
2018-07-27T17:00:51.691Z,1152.00
2018-07-27T17:01:51.709Z,1116.00
2018-07-27T17:02:51.706Z,1088.00
2018-07-27T17:03:51.715Z,1064.00
2018-07-27T17:04:51.719Z,1044.00
2018-07-27T17:05:51.726Z,1032.00
2018-07-27T17:06:51.736Z,1024.00
2018-07-27T17:07:51.740Z,1020.00
2018-07-27T17:08:51.748Z,1016.00
2018-07-27T17:09:51.753Z,1000.00
2018-07-27T17:10:51.761Z,988.00
2018-07-27T17:11:51.767Z,960.00
2018-07-27T17:12:51.774Z,936.00
2018-07-27T17:13:51.781Z,908.00
2018-07-27T17:14:51.787Z,888.00
2018-07-27T17:15:51.794Z,876.00
2018-07-27T17:16:51.802Z,872.00
2018-07-27T17:17:51.807Z,876.00
2018-07-27T17:18:51.815Z,888.00
2018-07-27T17:19:51.830Z,908.00
2018-07-27T17:20:51.828Z,928.00
2018-07-27T17:21:51.835Z,964.00
2018-07-27T17:22:51.841Z,940.00
2018-07-27T17:23:51.850Z,884.00
2018-07-27T17:24:51.855Z,796.00
2018-07-27T17:25:51.881Z,728.00
2018-07-27T17:26:51.868Z,700.00
2018-07-27T17:27:51.885Z,732.00
2018-07-27T17:28:51.883Z,736.00
2018-07-27T17:29:51.900Z,728.00
2018-07-27T17:30:51.898Z,716.00
2018-07-27T17:31:51.902Z,720.00
2018-07-27T17:32:51.928Z,684.00
2018-07-27T17:33:51.917Z,688.00
2018-07-27T17:34:51.920Z,636.00
2018-07-27T17:35:51.936Z,628.00
2018-07-27T17:36:51.934Z,620.00
2018-07-27T17:37:51.939Z,664.00
2018-07-27T17:38:51.948Z,676.00
2018-07-27T17:39:51.953Z,676.00
2018-07-27T17:40:51.960Z,648.00
2018-07-27T17:41:51.967Z,608.00
2018-07-27T17:42:52.027Z,608.00
2018-07-27T17:43:51.979Z,616.00
2018-07-27T17:44:52.008Z,612.00
2018-07-27T17:45:51.991Z,612.00
2018-07-27T17:46:52.003Z,608.00
2018-07-27T17:47:52.007Z,596.00
2018-07-27T17:48:52.013Z,588.00
2018-07-27T17:49:52.018Z,576.00
2018-07-27T17:50:52.026Z,568.00
2018-07-27T17:51:52.030Z,564.00
2018-07-27T17:52:52.037Z,560.00
2018-07-27T17:53:52.043Z,552.00
2018-07-27T17:54:52.080Z,552.00